^^
Station Historical Data
Daily Summary for September 15, 2017 Units:  Both    English   Metric
« Previous Day
Next Day »
Daily Weekly Monthly Yearly Custom
  High: Low: Average:
Temperature: TemperatureF °F /  -17.8 °C 55.8 °F /  13.2 °C 71.9 °F /  22.2 °C
Dew Point: DewpointF °F /  -17.8 °C 22.5 °F /  -5.3 °C 30 °F /  -1.1 °C
Humidity: Humidity% 11% 23%
Wind Speed: WindSpeedMPHmph /  0km/h - 1.8mph /  2.9km/h
Wind Gust: WindSpeedGustMPHmph /  0km/h - -
Wind- - SSW
Pressure: PressureIn in /  0 hPa 29.72 in /  1006.3 hPa -
Precipitation: 0.00 in /  0 mm    
Historical Graphs
 
 
Tabular Data for September 15, 2017
Time Temperature Dew Point Pressure Wind Wind Speed Wind Gust Humidity Rainfall Rate (Hourly) solar Conditions
TemperatureF °F /  -17.8 °C DewpointF °F /  -17.8 °C PressureInin /  0hPa Calm     Humidity% HourlyPrecipInin /  0mm SolarRadiationWatts/m^2 W/m2 Conditions
00:00 64.4 °F /  18 °C 26.8 °F /  -2.9 °C 29.80in /  1009hPa Calm     24% 0.00in /  0mm 0.0 W/m2
00:06 64.0 °F /  17.8 °C 27.5 °F /  -2.5 °C 29.80in /  1009hPa Calm   2.0mph /  3.2km/h 25% 0.00in /  0mm 0.0 W/m2
00:12 63.9 °F /  17.7 °C 27.3 °F /  -2.6 °C 29.80in /  1009hPa Calm     25% 0.00in /  0mm 0.0 W/m2
00:18 63.5 °F /  17.5 °C 27.0 °F /  -2.8 °C 29.80in /  1009hPa Calm     25% 0.00in /  0mm 0.0 W/m2
00:24 63.3 °F /  17.4 °C 27.0 °F /  -2.8 °C 29.80in /  1009hPa Calm   1.0mph /  1.6km/h 25% 0.00in /  0mm 0.0 W/m2
00:30 63.0 °F /  17.2 °C 27.5 °F /  -2.5 °C 29.80in /  1009hPa Calm   2.0mph /  3.2km/h 26% 0.00in /  0mm 0.0 W/m2
00:34 63.0 °F /  17.2 °C 26.6 °F /  -3 °C 29.80in /  1009hPa Calm     25% 0.00in /  0mm 0.0 W/m2
00:40 62.8 °F /  17.1 °C 26.4 °F /  -3.1 °C 29.80in /  1009hPa Calm     25% 0.00in /  0mm 0.0 W/m2
00:46 62.8 °F /  17.1 °C 27.3 °F /  -2.6 °C 29.80in /  1009hPa Calm   1.0mph /  1.6km/h 26% 0.00in /  0mm 0.0 W/m2
00:52 62.4 °F /  16.9 °C 27.1 °F /  -2.7 °C 29.80in /  1009hPa Calm     26% 0.00in /  0mm 0.0 W/m2
00:58 62.2 °F /  16.8 °C 27.0 °F /  -2.8 °C 29.80in /  1009hPa Calm     26% 0.00in /  0mm 0.0 W/m2
01:04 62.2 °F /  16.8 °C 27.0 °F /  -2.8 °C 29.80in /  1009hPa Calm     26% 0.00in /  0mm 0.0 W/m2
01:10 62.1 °F /  16.7 °C 26.8 °F /  -2.9 °C 29.80in /  1009hPa Calm     26% 0.00in /  0mm 0.0 W/m2
01:16 61.9 °F /  16.6 °C 26.6 °F /  -3 °C 29.80in /  1009hPa Calm     26% 0.00in /  0mm 0.0 W/m2
01:22 61.7 °F /  16.5 °C 27.3 °F /  -2.6 °C 29.80in /  1009hPa Calm     27% 0.00in /  0mm 0.0 W/m2
01:28 61.5 °F /  16.4 °C 27.1 °F /  -2.7 °C 29.80in /  1009hPa Calm     27% 0.00in /  0mm 0.0 W/m2
01:34 61.2 °F /  16.2 °C 27.0 °F /  -2.8 °C 29.80in /  1009hPa Calm     27% 0.00in /  0mm 0.0 W/m2
01:40 61.0 °F /  16.1 °C 27.7 °F /  -2.4 °C 29.80in /  1009hPa Calm     28% 0.00in /  0mm 0.0 W/m2
01:46 60.6 °F /  15.9 °C 27.3 °F /  -2.6 °C 29.80in /  1009hPa Calm     28% 0.00in /  0mm 0.0 W/m2
01:52 60.3 °F /  15.7 °C 27.0 °F /  -2.8 °C 29.79in /  1008.7hPa Calm     28% 0.00in /  0mm 0.0 W/m2
01:58 60.1 °F /  15.6 °C 26.8 °F /  -2.9 °C 29.80in /  1009hPa Calm     28% 0.00in /  0mm 0.0 W/m2
02:04 59.5 °F /  15.3 °C 27.3 °F /  -2.6 °C 29.79in /  1008.7hPa Calm     29% 0.00in /  0mm 0.0 W/m2
02:10 59.4 °F /  15.2 °C 27.1 °F /  -2.7 °C 29.79in /  1008.7hPa Calm     29% 0.00in /  0mm 0.0 W/m2
02:16 59.2 °F /  15.1 °C 27.0 °F /  -2.8 °C 29.79in /  1008.7hPa Calm     29% 0.00in /  0mm 0.0 W/m2
02:22 58.8 °F /  14.9 °C 26.6 °F /  -3 °C 29.79in /  1008.7hPa Calm   1.0mph /  1.6km/h 29% 0.00in /  0mm 0.0 W/m2
02:28 58.6 °F /  14.8 °C 27.3 °F /  -2.6 °C 29.79in /  1008.7hPa Calm     30% 0.00in /  0mm 0.0 W/m2
02:34 58.5 °F /  14.7 °C 27.1 °F /  -2.7 °C 29.79in /  1008.7hPa Calm     30% 0.00in /  0mm 0.0 W/m2
02:40 58.5 °F /  14.7 °C 27.1 °F /  -2.7 °C 29.79in /  1008.7hPa Calm   1.0mph /  1.6km/h 30% 0.00in /  0mm 0.0 W/m2
02:46 58.3 °F /  14.6 °C 28.6 °F /  -1.9 °C 29.79in /  1008.7hPa Calm   2.0mph /  3.2km/h 32% 0.00in /  0mm 0.0 W/m2
02:52 58.3 °F /  14.6 °C 28.6 °F /  -1.9 °C 29.79in /  1008.7hPa Calm     32% 0.00in /  0mm 0.0 W/m2
02:58 58.3 °F /  14.6 °C 28.6 °F /  -1.9 °C 29.79in /  1008.7hPa Calm     32% 0.00in /  0mm 0.0 W/m2
03:04 58.1 °F /  14.5 °C 28.4 °F /  -2 °C 29.79in /  1008.7hPa SE 0.9mph /  1.4km/h 1.0mph /  1.6km/h 32% 0.00in /  0mm 0.0 W/m2
03:10 57.9 °F /  14.4 °C 28.2 °F /  -2.1 °C 29.79in /  1008.7hPa Calm     32% 0.00in /  0mm 0.0 W/m2
03:16 57.9 °F /  14.4 °C 28.9 °F /  -1.7 °C 29.78in /  1008.4hPa Calm   1.0mph /  1.6km/h 33% 0.00in /  0mm 0.0 W/m2
03:22 57.7 °F /  14.3 °C 28.8 °F /  -1.8 °C 29.79in /  1008.7hPa Calm     33% 0.00in /  0mm 0.0 W/m2
03:28 57.6 °F /  14.2 °C 28.6 °F /  -1.9 °C 29.78in /  1008.4hPa Calm     33% 0.00in /  0mm 0.0 W/m2
03:34 57.6 °F /  14.2 °C 29.5 °F /  -1.4 °C 29.78in /  1008.4hPa Calm     34% 0.00in /  0mm 0.0 W/m2
03:40 57.4 °F /  14.1 °C 29.3 °F /  -1.5 °C 29.78in /  1008.4hPa Calm     34% 0.00in /  0mm 0.0 W/m2
03:52 57.2 °F /  14 °C 29.1 °F /  -1.6 °C 29.78in /  1008.4hPa Calm     34% 0.00in /  0mm 0.0 W/m2
03:58 57.2 °F /  14 °C 28.4 °F /  -2 °C 29.78in /  1008.4hPa ENE 0.9mph /  1.4km/h 2.0mph /  3.2km/h 33% 0.00in /  0mm 0.0 W/m2
04:04 57.4 °F /  14.1 °C 27.7 °F /  -2.4 °C 29.78in /  1008.4hPa Calm   2.0mph /  3.2km/h 32% 0.00in /  0mm 0.0 W/m2
04:10 57.4 °F /  14.1 °C 27.7 °F /  -2.4 °C 29.78in /  1008.4hPa Calm   3.0mph /  4.8km/h 32% 0.00in /  0mm 0.0 W/m2
04:16 57.4 °F /  14.1 °C 27.7 °F /  -2.4 °C 29.78in /  1008.4hPa East 0.9mph /  1.4km/h 2.0mph /  3.2km/h 32% 0.00in /  0mm 0.0 W/m2
04:22 57.4 °F /  14.1 °C 27.7 °F /  -2.4 °C 29.78in /  1008.4hPa ENE 2.0mph /  3.2km/h 5.0mph /  8km/h 32% 0.00in /  0mm 0.0 W/m2
04:28 57.6 °F /  14.2 °C 27.1 °F /  -2.7 °C 29.78in /  1008.4hPa Calm   4.0mph /  6.4km/h 31% 0.00in /  0mm 0.0 W/m2
04:34 57.9 °F /  14.4 °C 27.5 °F /  -2.5 °C 29.78in /  1008.4hPa Calm   2.0mph /  3.2km/h 31% 0.00in /  0mm 0.0 W/m2
04:40 57.9 °F /  14.4 °C 27.5 °F /  -2.5 °C 29.78in /  1008.4hPa Calm   2.0mph /  3.2km/h 31% 0.00in /  0mm 0.0 W/m2
04:46 57.9 °F /  14.4 °C 27.5 °F /  -2.5 °C 29.78in /  1008.4hPa Calm   1.0mph /  1.6km/h 31% 0.00in /  0mm 0.0 W/m2
04:52 57.9 °F /  14.4 °C 28.2 °F /  -2.1 °C 29.78in /  1008.4hPa Calm   2.0mph /  3.2km/h 32% 0.00in /  0mm 0.0 W/m2
04:54 57.9 °F /  14.4 °C 28.2 °F /  -2.1 °C 29.79in /  1008.7hPa Calm   1.0mph /  1.6km/h 32% 0.00in /  0mm 0.0 W/m2
05:00 57.9 °F /  14.4 °C 28.9 °F /  -1.7 °C 29.79in /  1008.7hPa Calm     33% 0.00in /  0mm 0.0 W/m2
05:06 57.6 °F /  14.2 °C 28.6 °F /  -1.9 °C 29.79in /  1008.7hPa Calm   1.0mph /  1.6km/h 33% 0.00in /  0mm 0.0 W/m2
05:22 57.0 °F /  13.9 °C 28.9 °F /  -1.7 °C 29.79in /  1008.7hPa Calm     34% 0.00in /  0mm 0.0 W/m2
05:24 56.8 °F /  13.8 °C 28.8 °F /  -1.8 °C 29.79in /  1008.7hPa Calm     34% 0.00in /  0mm 0.0 W/m2
05:28 56.7 °F /  13.7 °C 28.6 °F /  -1.9 °C 29.79in /  1008.7hPa Calm     34% 0.00in /  0mm 0.0 W/m2
05:32 56.7 °F /  13.7 °C 28.6 °F /  -1.9 °C 29.80in /  1009hPa Calm     34% 0.00in /  0mm 0.0 W/m2
05:39 56.1 °F /  13.4 °C 28.0 °F /  -2.2 °C 29.80in /  1009hPa Calm     34% 0.00in /  0mm 0.0 W/m2
05:45 55.9 °F /  13.3 °C 28.0 °F /  -2.2 °C 29.80in /  1009hPa Calm     34% 0.00in /  0mm 0.0 W/m2
05:51 55.8 °F /  13.2 °C 27.9 °F /  -2.3 °C 29.80in /  1009hPa Calm   1.0mph /  1.6km/h 34% 0.00in /  0mm 0.0 W/m2
05:53 55.8 °F /  13.2 °C 27.9 °F /  -2.3 °C 29.80in /  1009hPa Calm     34% 0.00in /  0mm 0.0 W/m2
05:55 55.8 °F /  13.2 °C 27.9 °F /  -2.3 °C 29.80in /  1009hPa Calm     34% 0.00in /  0mm 0.0 W/m2
06:01 55.8 °F /  13.2 °C 27.9 °F /  -2.3 °C 29.80in /  1009hPa Calm   2.0mph /  3.2km/h 34% 0.00in /  0mm 0.0 W/m2
06:07 55.8 °F /  13.2 °C 27.1 °F /  -2.7 °C 29.80in /  1009hPa ESE 0.9mph /  1.4km/h 2.0mph /  3.2km/h 33% 0.00in /  0mm 0.0 W/m2
06:13 55.9 °F /  13.3 °C 27.3 °F /  -2.6 °C 29.81in /  1009.4hPa Calm   1.0mph /  1.6km/h 33% 0.00in /  0mm 0.0 W/m2
06:17 55.9 °F /  13.3 °C 27.3 °F /  -2.6 °C 29.81in /  1009.4hPa Calm   1.0mph /  1.6km/h 33% 0.00in /  0mm 0.0 W/m2
06:23 55.9 °F /  13.3 °C 27.3 °F /  -2.6 °C 29.81in /  1009.4hPa Calm   1.0mph /  1.6km/h 33% 0.00in /  0mm 0.0 W/m2
06:29 55.9 °F /  13.3 °C 27.3 °F /  -2.6 °C 29.81in /  1009.4hPa ENE 0.9mph /  1.4km/h 3.0mph /  4.8km/h 33% 0.00in /  0mm 0.0 W/m2
06:35 55.9 °F /  13.3 °C 26.4 °F /  -3.1 °C 29.82in /  1009.7hPa Calm   2.0mph /  3.2km/h 32% 0.00in /  0mm 0.0 W/m2
06:41 56.3 °F /  13.5 °C 26.8 °F /  -2.9 °C 29.82in /  1009.7hPa East 0.9mph /  1.4km/h 6.0mph /  9.7km/h 32% 0.00in /  0mm 0.0 W/m2
06:48 56.7 °F /  13.7 °C 27.1 °F /  -2.7 °C 29.82in /  1009.7hPa East 2.0mph /  3.2km/h 2.0mph /  3.2km/h 32% 0.00in /  0mm 0.0 W/m2
06:54 57.0 °F /  13.9 °C 26.6 °F /  -3 °C 29.82in /  1009.7hPa SE 0.9mph /  1.4km/h 2.0mph /  3.2km/h 31% 0.00in /  0mm 5.0 W/m2
07:00 57.4 °F /  14.1 °C 27.0 °F /  -2.8 °C 29.82in /  1009.7hPa Calm   2.0mph /  3.2km/h 31% 0.00in /  0mm 9.0 W/m2
07:06 57.6 °F /  14.2 °C 27.1 °F /  -2.7 °C 29.83in /  1010hPa Calm   1.0mph /  1.6km/h 31% 0.00in /  0mm 14.0 W/m2
07:12 57.7 °F /  14.3 °C 27.3 °F /  -2.6 °C 29.83in /  1010hPa Calm     31% 0.00in /  0mm 19.0 W/m2
07:18 57.6 °F /  14.2 °C 27.1 °F /  -2.7 °C 29.83in /  1010hPa East 0.9mph /  1.4km/h 1.0mph /  1.6km/h 31% 0.00in /  0mm 23.0 W/m2
07:24 57.6 °F /  14.2 °C 27.1 °F /  -2.7 °C 29.83in /  1010hPa Calm     31% 0.00in /  0mm 28.0 W/m2
07:31 57.7 °F /  14.3 °C 26.4 °F /  -3.1 °C 29.83in /  1010hPa Calm   2.0mph /  3.2km/h 30% 0.00in /  0mm 33.0 W/m2
07:37 58.3 °F /  14.6 °C 27.0 °F /  -2.8 °C 29.84in /  1010.4hPa ENE 2.9mph /  4.7km/h 3.0mph /  4.8km/h 30% 0.00in /  0mm 39.0 W/m2
07:43 59.2 °F /  15.1 °C 27.0 °F /  -2.8 °C 29.84in /  1010.4hPa Calm   2.0mph /  3.2km/h 29% 0.00in /  0mm 44.0 W/m2
07:49 60.1 °F /  15.6 °C 26.8 °F /  -2.9 °C 29.84in /  1010.4hPa ESE 2.0mph /  3.2km/h 3.0mph /  4.8km/h 28% 0.00in /  0mm 49.0 W/m2
07:55 60.6 °F /  15.9 °C 26.4 °F /  -3.1 °C 29.85in /  1010.7hPa East 0.9mph /  1.4km/h 2.0mph /  3.2km/h 27% 0.00in /  0mm 54.0 W/m2
08:01 61.3 °F /  16.3 °C 27.1 °F /  -2.7 °C 29.85in /  1010.7hPa Calm   2.0mph /  3.2km/h 27% 0.00in /  0mm 60.0 W/m2
08:07 61.9 °F /  16.6 °C 28.4 °F /  -2 °C 29.85in /  1010.7hPa ENE 0.9mph /  1.4km/h 1.0mph /  1.6km/h 28% 0.00in /  0mm 63.0 W/m2
08:13 62.2 °F /  16.8 °C 27.9 °F /  -2.3 °C 29.85in /  1010.7hPa ENE 0.9mph /  1.4km/h 1.0mph /  1.6km/h 27% 0.00in /  0mm 69.0 W/m2
08:19 62.8 °F /  17.1 °C 28.2 °F /  -2.1 °C 29.85in /  1010.7hPa Calm   1.0mph /  1.6km/h 27% 0.00in /  0mm 72.0 W/m2
08:26 63.3 °F /  17.4 °C 28.8 °F /  -1.8 °C 29.85in /  1010.7hPa Calm   2.0mph /  3.2km/h 27% 0.00in /  0mm 77.0 W/m2
08:32 64.0 °F /  17.8 °C 27.5 °F /  -2.5 °C 29.85in /  1010.7hPa Calm   2.0mph /  3.2km/h 25% 0.00in /  0mm 84.0 W/m2
08:38 64.8 °F /  18.2 °C 29.1 °F /  -1.6 °C 29.85in /  1010.7hPa Calm   1.0mph /  1.6km/h 26% 0.00in /  0mm 84.0 W/m2
08:44 65.7 °F /  18.7 °C 26.8 °F /  -2.9 °C 29.85in /  1010.7hPa Calm   2.0mph /  3.2km/h 23% 0.00in /  0mm 90.0 W/m2
08:50 66.4 °F /  19.1 °C 26.4 °F /  -3.1 °C 29.85in /  1010.7hPa Calm     22% 0.00in /  0mm 93.0 W/m2
08:56 67.3 °F /  19.6 °C 26.1 °F /  -3.3 °C 29.85in /  1010.7hPa ESE 0.9mph /  1.4km/h 1.0mph /  1.6km/h 21% 0.00in /  0mm 97.0 W/m2
09:02 68.2 °F /  20.1 °C 25.5 °F /  -3.6 °C 29.85in /  1010.7hPa Calm   1.0mph /  1.6km/h 20% 0.00in /  0mm 100.0 W/m2
09:08 68.9 °F /  20.5 °C 25.0 °F /  -3.9 °C 29.85in /  1010.7hPa Calm     19% 0.00in /  0mm 104.0 W/m2
09:15 69.8 °F /  21 °C 24.4 °F /  -4.2 °C 29.85in /  1010.7hPa Calm   1.0mph /  1.6km/h 18% 0.00in /  0mm 105.0 W/m2
09:21 70.7 °F /  21.5 °C 25.2 °F /  -3.8 °C 29.84in /  1010.4hPa WSW 0.9mph /  1.4km/h 1.0mph /  1.6km/h 18% 0.00in /  0mm 111.0 W/m2
09:27 71.4 °F /  21.9 °C 25.7 °F /  -3.5 °C 29.84in /  1010.4hPa WSW 0.9mph /  1.4km/h 2.0mph /  3.2km/h 18% 0.00in /  0mm 113.0 W/m2
09:33 72.1 °F /  22.3 °C 26.2 °F /  -3.2 °C 29.84in /  1010.4hPa West 2.0mph /  3.2km/h 2.0mph /  3.2km/h 18% 0.00in /  0mm 134.0 W/m2
09:39 72.9 °F /  22.7 °C 25.5 °F /  -3.6 °C 29.84in /  1010.4hPa Calm   1.0mph /  1.6km/h 17% 0.00in /  0mm 457.0 W/m2
09:45 74.1 °F /  23.4 °C 25.0 °F /  -3.9 °C 29.84in /  1010.4hPa North 2.0mph /  3.2km/h 6.0mph /  9.7km/h 16% 0.00in /  0mm 478.0 W/m2
09:51 75.4 °F /  24.1 °C 24.4 °F /  -4.2 °C 29.84in /  1010.4hPa North 2.0mph /  3.2km/h 3.0mph /  4.8km/h 15% 0.00in /  0mm 504.0 W/m2
09:57 76.3 °F /  24.6 °C 25.2 °F /  -3.8 °C 29.83in /  1010hPa NW 0.9mph /  1.4km/h 4.0mph /  6.4km/h 15% 0.00in /  0mm 520.0 W/m2
10:04 77.2 °F /  25.1 °C 24.3 °F /  -4.3 °C 29.83in /  1010hPa Calm   4.0mph /  6.4km/h 14% 0.00in /  0mm 540.0 W/m2
10:10 78.1 °F /  25.6 °C 25.0 °F /  -3.9 °C 29.83in /  1010hPa NW 0.9mph /  1.4km/h 7.0mph /  11.3km/h 14% 0.00in /  0mm 554.0 W/m2
10:16 79.2 °F /  26.2 °C 24.1 °F /  -4.4 °C 29.83in /  1010hPa North 6.0mph /  9.7km/h 10.0mph /  16.1km/h 13% 0.00in /  0mm 570.0 W/m2
10:22 79.9 °F /  26.6 °C 24.6 °F /  -4.1 °C 29.83in /  1010hPa NW 6.0mph /  9.7km/h 9.0mph /  14.5km/h 13% 0.00in /  0mm 584.0 W/m2
10:28 80.8 °F /  27.1 °C 25.3 °F /  -3.7 °C 29.83in /  1010hPa NNE 6.9mph /  11.1km/h 12.0mph /  19.3km/h 13% 0.00in /  0mm 603.0 W/m2
10:34 81.5 °F /  27.5 °C 24.1 °F /  -4.4 °C 29.83in /  1010hPa NE 2.0mph /  3.2km/h 11.0mph /  17.7km/h 12% 0.00in /  0mm 619.0 W/m2
10:40 81.9 °F /  27.7 °C 24.3 °F /  -4.3 °C 29.83in /  1010hPa North 2.0mph /  3.2km/h 9.0mph /  14.5km/h 12% 0.00in /  0mm 636.0 W/m2
10:47 82.2 °F /  27.9 °C 22.5 °F /  -5.3 °C 29.83in /  1010hPa NNW 11.0mph /  17.7km/h 11.0mph /  17.7km/h 11% 0.00in /  0mm 645.0 W/m2
10:53 82.6 °F /  28.1 °C 22.8 °F /  -5.1 °C 29.83in /  1010hPa North 4.0mph /  6.4km/h 14.0mph /  22.5km/h 11% 0.00in /  0mm 657.0 W/m2
10:59 83.1 °F /  28.4 °C 23.2 °F /  -4.9 °C 29.83in /  1010hPa NE 6.9mph /  11.1km/h 16.0mph /  25.7km/h 11% 0.00in /  0mm 670.0 W/m2
11:05 83.1 °F /  28.4 °C 23.2 °F /  -4.9 °C 29.83in /  1010hPa NW 6.9mph /  11.1km/h 19.0mph /  30.6km/h 11% 0.00in /  0mm 682.0 W/m2
11:11 83.5 °F /  28.6 °C 23.4 °F /  -4.8 °C 29.82in /  1009.7hPa NNW 16.1mph /  25.9km/h 17.0mph /  27.4km/h 11% 0.00in /  0mm 687.0 W/m2
11:17 83.8 °F /  28.8 °C 23.7 °F /  -4.6 °C 29.82in /  1009.7hPa NNE 4.0mph /  6.4km/h 17.0mph /  27.4km/h 11% 0.00in /  0mm 700.0 W/m2
11:23 84.0 °F /  28.9 °C 23.9 °F /  -4.5 °C 29.82in /  1009.7hPa North 6.9mph /  11.1km/h 16.0mph /  25.7km/h 11% 0.00in /  0mm 708.0 W/m2
11:29 84.6 °F /  29.2 °C 24.3 °F /  -4.3 °C 29.82in /  1009.7hPa NNW 13.0mph /  20.9km/h 15.0mph /  24.1km/h 11% 0.00in /  0mm 717.0 W/m2
11:36 84.7 °F /  29.3 °C 24.4 °F /  -4.2 °C 29.82in /  1009.7hPa North 6.0mph /  9.7km/h 13.0mph /  20.9km/h 11% 0.00in /  0mm 722.0 W/m2
11:42 84.6 °F /  29.2 °C 24.3 °F /  -4.3 °C 29.82in /  1009.7hPa North 12.1mph /  19.5km/h 20.0mph /  32.2km/h 11% 0.00in /  0mm 728.0 W/m2
11:48 84.6 °F /  29.2 °C 24.3 °F /  -4.3 °C 29.81in /  1009.4hPa NNE 8.9mph /  14.3km/h 15.0mph /  24.1km/h 11% 0.00in /  0mm 738.0 W/m2
11:54 84.7 °F /  29.3 °C 26.4 °F /  -3.1 °C 29.82in /  1009.7hPa North 13.0mph /  20.9km/h 17.0mph /  27.4km/h 12% 0.00in /  0mm 742.0 W/m2
12:00 84.9 °F /  29.4 °C 26.6 °F /  -3 °C 29.81in /  1009.4hPa North 4.9mph /  7.9km/h 13.0mph /  20.9km/h 12% 0.00in /  0mm 742.0 W/m2
12:06 85.5 °F /  29.7 °C 27.1 °F /  -2.7 °C 29.81in /  1009.4hPa NNW 10.1mph /  16.3km/h 15.0mph /  24.1km/h 12% 0.00in /  0mm 747.0 W/m2
12:12 85.6 °F /  29.8 °C 27.1 °F /  -2.7 °C 29.81in /  1009.4hPa NNW 2.9mph /  4.7km/h 16.0mph /  25.7km/h 12% 0.00in /  0mm 749.0 W/m2
12:18 85.8 °F /  29.9 °C 27.3 °F /  -2.6 °C 29.81in /  1009.4hPa NNW 10.1mph /  16.3km/h 13.0mph /  20.9km/h 12% 0.00in /  0mm 752.0 W/m2
12:25 86.2 °F /  30.1 °C 27.7 °F /  -2.4 °C 29.80in /  1009hPa NW 6.0mph /  9.7km/h 14.0mph /  22.5km/h 12% 0.00in /  0mm 756.0 W/m2
12:31 86.2 °F /  30.1 °C 27.7 °F /  -2.4 °C 29.80in /  1009hPa North 6.0mph /  9.7km/h 19.0mph /  30.6km/h 12% 0.00in /  0mm 761.0 W/m2
12:37 85.8 °F /  29.9 °C 27.3 °F /  -2.6 °C 29.80in /  1009hPa NNW 2.9mph /  4.7km/h 14.0mph /  22.5km/h 12% 0.00in /  0mm 756.0 W/m2
12:43 86.4 °F /  30.2 °C 27.7 °F /  -2.4 °C 29.80in /  1009hPa North 15.0mph /  24.1km/h 16.0mph /  25.7km/h 12% 0.00in /  0mm 758.0 W/m2
12:49 86.2 °F /  30.1 °C 27.7 °F /  -2.4 °C 29.79in /  1008.7hPa North 8.1mph /  13km/h 14.0mph /  22.5km/h 12% 0.00in /  0mm 749.0 W/m2
12:55 86.4 °F /  30.2 °C 27.7 °F /  -2.4 °C 29.79in /  1008.7hPa West 8.9mph /  14.3km/h 15.0mph /  24.1km/h 12% 0.00in /  0mm 745.0 W/m2
13:01 86.5 °F /  30.3 °C 27.9 °F /  -2.3 °C 29.79in /  1008.7hPa NNE 6.0mph /  9.7km/h 15.0mph /  24.1km/h 12% 0.00in /  0mm 744.0 W/m2
13:08 86.7 °F /  30.4 °C 28.0 °F /  -2.2 °C 29.78in /  1008.4hPa NNW 4.0mph /  6.4km/h 11.0mph /  17.7km/h 12% 0.00in /  0mm 749.0 W/m2
13:14 87.3 °F /  30.7 °C 28.4 °F /  -2 °C 29.78in /  1008.4hPa NW 6.0mph /  9.7km/h 19.0mph /  30.6km/h 12% 0.00in /  0mm 738.0 W/m2
13:20 87.1 °F /  30.6 °C 28.4 °F /  -2 °C 29.78in /  1008.4hPa NW 8.9mph /  14.3km/h 11.0mph /  17.7km/h 12% 0.00in /  0mm 742.0 W/m2
13:26 87.6 °F /  30.9 °C 28.8 °F /  -1.8 °C 29.77in /  1008hPa NW 4.9mph /  7.9km/h 14.0mph /  22.5km/h 12% 0.00in /  0mm 738.0 W/m2
13:32 88.2 °F /  31.2 °C 29.1 °F /  -1.6 °C 29.77in /  1008hPa NNW 2.0mph /  3.2km/h 9.0mph /  14.5km/h 12% 0.00in /  0mm 728.0 W/m2
13:38 88.3 °F /  31.3 °C 29.3 °F /  -1.5 °C 29.77in /  1008hPa NNW 4.9mph /  7.9km/h 11.0mph /  17.7km/h 12% 0.00in /  0mm 717.0 W/m2
13:44 88.0 °F /  31.1 °C 28.9 °F /  -1.7 °C 29.77in /  1008hPa North 4.9mph /  7.9km/h 14.0mph /  22.5km/h 12% 0.00in /  0mm 707.0 W/m2
13:50 88.0 °F /  31.1 °C 28.9 °F /  -1.7 °C 29.76in /  1007.7hPa ENE 2.9mph /  4.7km/h 11.0mph /  17.7km/h 12% 0.00in /  0mm 696.0 W/m2
13:57 88.0 °F /  31.1 °C 28.9 °F /  -1.7 °C 29.76in /  1007.7hPa NNW 4.9mph /  7.9km/h 11.0mph /  17.7km/h 12% 0.00in /  0mm 698.0 W/m2
14:03 88.5 °F /  31.4 °C 29.5 °F /  -1.4 °C 29.76in /  1007.7hPa WNW 2.9mph /  4.7km/h 8.0mph /  12.9km/h 12% 0.00in /  0mm 694.0 W/m2
14:09 88.9 °F /  31.6 °C 29.7 °F /  -1.3 °C 29.76in /  1007.7hPa NNW 4.0mph /  6.4km/h 10.0mph /  16.1km/h 12% 0.00in /  0mm 668.0 W/m2
14:15 89.1 °F /  31.7 °C 29.8 °F /  -1.2 °C 29.75in /  1007.3hPa NNW 4.0mph /  6.4km/h 14.0mph /  22.5km/h 12% 0.00in /  0mm 652.0 W/m2
14:21 89.1 °F /  31.7 °C 29.8 °F /  -1.2 °C 29.75in /  1007.3hPa North 2.0mph /  3.2km/h 7.0mph /  11.3km/h 12% 0.00in /  0mm 645.0 W/m2
14:27 89.1 °F /  31.7 °C 27.7 °F /  -2.4 °C 29.75in /  1007.3hPa NNW 6.0mph /  9.7km/h 11.0mph /  17.7km/h 11% 0.00in /  0mm 631.0 W/m2
14:33 88.9 °F /  31.6 °C 29.7 °F /  -1.3 °C 29.75in /  1007.3hPa WNW 13.0mph /  20.9km/h 13.0mph /  20.9km/h 12% 0.00in /  0mm 631.0 W/m2
14:39 89.1 °F /  31.7 °C 29.8 °F /  -1.2 °C 29.74in /  1007hPa NNW 2.0mph /  3.2km/h 12.0mph /  19.3km/h 12% 0.00in /  0mm 612.0 W/m2
14:46 89.4 °F /  31.9 °C 30.2 °F /  -1 °C 29.74in /  1007hPa WNW 8.1mph /  13km/h 8.1mph /  13km/h 12% 0.00in /  0mm 594.0 W/m2
14:52 89.8 °F /  32.1 °C 30.4 °F /  -0.9 °C 29.74in /  1007hPa WNW 2.0mph /  3.2km/h 8.0mph /  12.9km/h 12% 0.00in /  0mm 568.0 W/m2
14:58 89.6 °F /  32 °C 30.2 °F /  -1 °C 29.73in /  1006.7hPa WNW 2.0mph /  3.2km/h 5.0mph /  8km/h 12% 0.00in /  0mm 566.0 W/m2
15:04 89.8 °F /  32.1 °C 30.4 °F /  -0.9 °C 29.73in /  1006.7hPa NNW 2.0mph /  3.2km/h 7.0mph /  11.3km/h 12% 0.00in /  0mm 554.0 W/m2
15:10 90.0 °F /  32.2 °C 30.6 °F /  -0.8 °C 29.73in /  1006.7hPa WNW 10.1mph /  16.3km/h 11.0mph /  17.7km/h 12% 0.00in /  0mm 531.0 W/m2
15:16 89.8 °F /  32.1 °C 30.4 °F /  -0.9 °C 29.73in /  1006.7hPa North 2.9mph /  4.7km/h 8.0mph /  12.9km/h 12% 0.00in /  0mm 506.0 W/m2
15:22 89.4 °F /  31.9 °C 30.2 °F /  -1 °C 29.73in /  1006.7hPa Calm   9.0mph /  14.5km/h 12% 0.00in /  0mm 508.0 W/m2
15:29 89.2 °F /  31.8 °C 30.0 °F /  -1.1 °C 29.73in /  1006.7hPa NW 6.0mph /  9.7km/h 11.0mph /  17.7km/h 12% 0.00in /  0mm 499.0 W/m2
15:35 88.9 °F /  31.6 °C 29.7 °F /  -1.3 °C 29.73in /  1006.7hPa NNE 2.0mph /  3.2km/h 8.0mph /  12.9km/h 12% 0.00in /  0mm 480.0 W/m2
15:41 88.7 °F /  31.5 °C 31.5 °F /  -0.3 °C 29.72in /  1006.3hPa NNW 4.9mph /  7.9km/h 12.0mph /  19.3km/h 13% 0.00in /  0mm 457.0 W/m2
15:47 88.7 °F /  31.5 °C 31.5 °F /  -0.3 °C 29.72in /  1006.3hPa North 4.9mph /  7.9km/h 10.0mph /  16.1km/h 13% 0.00in /  0mm 441.0 W/m2
15:53 88.5 °F /  31.4 °C 31.5 °F /  -0.3 °C 29.72in /  1006.3hPa WNW 2.0mph /  3.2km/h 13.0mph /  20.9km/h 13% 0.00in /  0mm 424.0 W/m2
15:59 88.5 °F /  31.4 °C 31.5 °F /  -0.3 °C 29.72in /  1006.3hPa NW 0.9mph /  1.4km/h 8.0mph /  12.9km/h 13% 0.00in /  0mm 404.0 W/m2
16:05 88.7 °F /  31.5 °C 31.5 °F /  -0.3 °C 29.72in /  1006.3hPa NNW 8.1mph /  13km/h 11.0mph /  17.7km/h 13% 0.00in /  0mm 381.0 W/m2
16:11 88.5 °F /  31.4 °C 31.5 °F /  -0.3 °C 29.72in /  1006.3hPa North 2.0mph /  3.2km/h 9.0mph /  14.5km/h 13% 0.00in /  0mm 364.0 W/m2
16:18 88.3 °F /  31.3 °C 31.3 °F /  -0.4 °C 29.72in /  1006.3hPa Calm   1.0mph /  1.6km/h 13% 0.00in /  0mm 332.0 W/m2
16:24 88.7 °F /  31.5 °C 31.5 °F /  -0.3 °C 29.72in /  1006.3hPa West 2.9mph /  4.7km/h 7.0mph /  11.3km/h 13% 0.00in /  0mm 323.0 W/m2
16:30 88.9 °F /  31.6 °C 31.6 °F /  -0.2 °C 29.72in /  1006.3hPa NNW 4.0mph /  6.4km/h 4.0mph /  6.4km/h 13% 0.00in /  0mm 302.0 W/m2
16:36 88.9 °F /  31.6 °C 31.6 °F /  -0.2 °C 29.72in /  1006.3hPa NW 8.1mph /  13km/h 12.0mph /  19.3km/h 13% 0.00in /  0mm 285.0 W/m2
16:42 88.3 °F /  31.3 °C 31.3 °F /  -0.4 °C 29.72in /  1006.3hPa NNW 0.9mph /  1.4km/h 8.0mph /  12.9km/h 13% 0.00in /  0mm 264.0 W/m2
16:48 88.2 °F /  31.2 °C 31.1 °F /  -0.5 °C 29.72in /  1006.3hPa North 2.9mph /  4.7km/h 9.0mph /  14.5km/h 13% 0.00in /  0mm 246.0 W/m2
16:54 88.0 °F /  31.1 °C 30.9 °F /  -0.6 °C 29.72in /  1006.3hPa WNW 4.0mph /  6.4km/h 6.0mph /  9.7km/h 13% 0.00in /  0mm 223.0 W/m2
17:00 87.8 °F /  31 °C 32.7 °F /  0.4 °C 29.72in /  1006.3hPa WNW 2.9mph /  4.7km/h 7.0mph /  11.3km/h 14% 0.00in /  0mm 207.0 W/m2
17:07 88.0 °F /  31.1 °C 32.9 °F /  0.5 °C 29.72in /  1006.3hPa Calm   7.0mph /  11.3km/h 14% 0.00in /  0mm 192.0 W/m2
17:13 87.8 °F /  31 °C 30.9 °F /  -0.6 °C 29.72in /  1006.3hPa West 2.0mph /  3.2km/h 9.0mph /  14.5km/h 13% 0.00in /  0mm 176.0 W/m2
17:19 87.6 °F /  30.9 °C 32.5 °F /  0.3 °C 29.72in /  1006.3hPa NNW 2.0mph /  3.2km/h 4.0mph /  6.4km/h 14% 0.00in /  0mm 158.0 W/m2
17:25 87.4 °F /  30.8 °C 32.4 °F /  0.2 °C 29.72in /  1006.3hPa Calm   9.0mph /  14.5km/h 14% 0.00in /  0mm 141.0 W/m2
17:31 87.4 °F /  30.8 °C 34.2 °F /  1.2 °C 29.72in /  1006.3hPa WNW 2.0mph /  3.2km/h 3.0mph /  4.8km/h 15% 0.00in /  0mm 125.0 W/m2
17:37 87.3 °F /  30.7 °C 34.0 °F /  1.1 °C 29.72in /  1006.3hPa WNW 4.0mph /  6.4km/h 6.0mph /  9.7km/h 15% 0.00in /  0mm 109.0 W/m2
17:43 86.7 °F /  30.4 °C 33.6 °F /  0.9 °C 29.72in /  1006.3hPa Calm   1.0mph /  1.6km/h 15% 0.00in /  0mm 95.0 W/m2
17:50 86.7 °F /  30.4 °C 35.2 °F /  1.8 °C 29.73in /  1006.7hPa Calm   1.0mph /  1.6km/h 16% 0.00in /  0mm 81.0 W/m2
17:56 86.4 °F /  30.2 °C 34.9 °F /  1.6 °C 29.73in /  1006.7hPa Calm   2.0mph /  3.2km/h 16% 0.00in /  0mm 69.0 W/m2
18:02 86.0 °F /  30 °C 34.5 °F /  1.4 °C 29.73in /  1006.7hPa Calm   3.0mph /  4.8km/h 16% 0.00in /  0mm 44.0 W/m2
18:08 85.5 °F /  29.7 °C 35.6 °F /  2 °C 29.74in /  1007hPa Calm   3.0mph /  4.8km/h 17% 0.00in /  0mm 33.0 W/m2
18:14 84.7 °F /  29.3 °C 35.1 °F /  1.7 °C 29.74in /  1007hPa Calm   1.0mph /  1.6km/h 17% 0.00in /  0mm 26.0 W/m2
18:20 84.2 °F /  29 °C 34.7 °F /  1.5 °C 29.74in /  1007hPa Calm   2.0mph /  3.2km/h 17% 0.00in /  0mm 21.0 W/m2
18:26 83.7 °F /  28.7 °C 35.6 °F /  2 °C 29.74in /  1007hPa Calm   3.0mph /  4.8km/h 18% 0.00in /  0mm 14.0 W/m2
18:32 82.9 °F /  28.3 °C 35.1 °F /  1.7 °C 29.74in /  1007hPa West 0.9mph /  1.4km/h 2.0mph /  3.2km/h 18% 0.00in /  0mm 9.0 W/m2
18:39 82.6 °F /  28.1 °C 34.7 °F /  1.5 °C 29.74in /  1007hPa Calm   2.0mph /  3.2km/h 18% 0.00in /  0mm 5.0 W/m2
18:45 82.0 °F /  27.8 °C 34.3 °F /  1.3 °C 29.74in /  1007hPa WSW 0.9mph /  1.4km/h 5.0mph /  8km/h 18% 0.00in /  0mm 0.0 W/m2
18:51 81.5 °F /  27.5 °C 35.2 °F /  1.8 °C 29.75in /  1007.3hPa West 2.9mph /  4.7km/h 5.0mph /  8km/h 19% 0.00in /  0mm 0.0 W/m2
18:57 81.0 °F /  27.2 °C 34.9 °F /  1.6 °C 29.75in /  1007.3hPa SW 4.9mph /  7.9km/h 6.0mph /  9.7km/h 19% 0.00in /  0mm 0.0 W/m2
19:03 80.4 °F /  26.9 °C 34.3 °F /  1.3 °C 29.75in /  1007.3hPa WSW 2.9mph /  4.7km/h 6.0mph /  9.7km/h 19% 0.00in /  0mm 0.0 W/m2
19:09 80.1 °F /  26.7 °C 34.2 °F /  1.2 °C 29.76in /  1007.7hPa Calm     19% 0.00in /  0mm 0.0 W/m2
19:15 79.5 °F /  26.4 °C 34.9 °F /  1.6 °C 29.76in /  1007.7hPa Calm     20% 0.00in /  0mm 0.0 W/m2
19:21 79.2 °F /  26.2 °C 34.7 °F /  1.5 °C 29.76in /  1007.7hPa Calm   2.0mph /  3.2km/h 20% 0.00in /  0mm 0.0 W/m2
19:28 78.4 °F /  25.8 °C 35.2 °F /  1.8 °C 29.77in /  1008hPa Calm     21% 0.00in /  0mm 0.0 W/m2
19:34 77.9 °F /  25.5 °C 34.9 °F /  1.6 °C 29.77in /  1008hPa Calm   2.0mph /  3.2km/h 21% 0.00in /  0mm 0.0 W/m2
19:40 77.4 °F /  25.2 °C 35.6 °F /  2 °C 29.77in /  1008hPa Calm     22% 0.00in /  0mm 0.0 W/m2
19:46 76.6 °F /  24.8 °C 34.9 °F /  1.6 °C 29.78in /  1008.4hPa Calm     22% 0.00in /  0mm 0.0 W/m2
19:52 76.3 °F /  24.6 °C 35.8 °F /  2.1 °C 29.78in /  1008.4hPa Calm     23% 0.00in /  0mm 0.0 W/m2
19:58 75.6 °F /  24.2 °C 36.3 °F /  2.4 °C 29.79in /  1008.7hPa Calm     24% 0.00in /  0mm 0.0 W/m2
20:04 75.0 °F /  23.9 °C 36.9 °F /  2.7 °C 29.79in /  1008.7hPa Calm     25% 0.00in /  0mm 0.0 W/m2
20:11 74.5 °F /  23.6 °C 37.4 °F /  3 °C 29.79in /  1008.7hPa Calm   2.0mph /  3.2km/h 26% 0.00in /  0mm 0.0 W/m2
20:17 73.9 °F /  23.3 °C 36.9 °F /  2.7 °C 29.80in /  1009hPa Calm     26% 0.00in /  0mm 0.0 W/m2
20:23 73.6 °F /  23.1 °C 37.6 °F /  3.1 °C 29.80in /  1009hPa Calm     27% 0.00in /  0mm 0.0 W/m2
20:29 73.0 °F /  22.8 °C 37.9 °F /  3.3 °C 29.80in /  1009hPa Calm     28% 0.00in /  0mm 0.0 W/m2
20:35 72.7 °F /  22.6 °C 38.7 °F /  3.7 °C 29.80in /  1009hPa Calm   1.0mph /  1.6km/h 29% 0.00in /  0mm 0.0 W/m2
20:41 72.3 °F /  22.4 °C 38.3 °F /  3.5 °C 29.81in /  1009.4hPa NNW 0.9mph /  1.4km/h 2.0mph /  3.2km/h 29% 0.00in /  0mm 0.0 W/m2
20:48 72.0 °F /  22.2 °C 38.8 °F /  3.8 °C 29.81in /  1009.4hPa Calm     30% 0.00in /  0mm 0.0 W/m2
20:54 72.0 °F /  22.2 °C 38.8 °F /  3.8 °C 29.81in /  1009.4hPa SW 2.0mph /  3.2km/h 3.0mph /  4.8km/h 30% 0.00in /  0mm 0.0 W/m2
21:00 72.1 °F /  22.3 °C 39.0 °F /  3.9 °C 29.82in /  1009.7hPa Calm   4.0mph /  6.4km/h 30% 0.00in /  0mm 0.0 W/m2
21:06 72.3 °F /  22.4 °C 39.2 °F /  4 °C 29.82in /  1009.7hPa Calm   2.0mph /  3.2km/h 30% 0.00in /  0mm 0.0 W/m2
21:12 72.3 °F /  22.4 °C 39.2 °F /  4 °C 29.82in /  1009.7hPa Calm   1.0mph /  1.6km/h 30% 0.00in /  0mm 0.0 W/m2
21:18 72.1 °F /  22.3 °C 39.0 °F /  3.9 °C 29.82in /  1009.7hPa Calm     30% 0.00in /  0mm 0.0 W/m2
21:24 72.1 °F /  22.3 °C 39.0 °F /  3.9 °C 29.82in /  1009.7hPa Calm   2.0mph /  3.2km/h 30% 0.00in /  0mm 0.0 W/m2
21:30 72.0 °F /  22.2 °C 38.8 °F /  3.8 °C 29.82in /  1009.7hPa Calm     30% 0.00in /  0mm 0.0 W/m2
21:36 71.8 °F /  22.1 °C 38.7 °F /  3.7 °C 29.82in /  1009.7hPa Calm     30% 0.00in /  0mm 0.0 W/m2
21:43 71.2 °F /  21.8 °C 36.5 °F /  2.5 °C 29.83in /  1010hPa Calm   1.0mph /  1.6km/h 28% 0.00in /  0mm 0.0 W/m2
21:49 70.7 °F /  21.5 °C 36.9 °F /  2.7 °C 29.83in /  1010hPa Calm     29% 0.00in /  0mm 0.0 W/m2
21:55 70.2 °F /  21.2 °C 37.2 °F /  2.9 °C 29.83in /  1010hPa Calm     30% 0.00in /  0mm 0.0 W/m2
22:01 69.6 °F /  20.9 °C 36.9 °F /  2.7 °C 29.83in /  1010hPa Calm   3.0mph /  4.8km/h 30% 0.00in /  0mm 0.0 W/m2
22:07 69.3 °F /  20.7 °C 37.4 °F /  3 °C 29.83in /  1010hPa Calm     31% 0.00in /  0mm 0.0 W/m2
22:13 69.1 °F /  20.6 °C 36.3 °F /  2.4 °C 29.83in /  1010hPa SW 0.9mph /  1.4km/h 2.0mph /  3.2km/h 30% 0.00in /  0mm 0.0 W/m2
22:19 68.4 °F /  20.2 °C 36.5 °F /  2.5 °C 29.83in /  1010hPa Calm     31% 0.00in /  0mm 0.0 W/m2
22:26 67.8 °F /  19.9 °C 36.9 °F /  2.7 °C 29.83in /  1010hPa Calm     32% 0.00in /  0mm 0.0 W/m2
22:32 67.5 °F /  19.7 °C 36.5 °F /  2.5 °C 29.83in /  1010hPa Calm   1.0mph /  1.6km/h 32% 0.00in /  0mm 0.0 W/m2
22:38 66.9 °F /  19.4 °C 36.9 °F /  2.7 °C 29.83in /  1010hPa Calm   2.0mph /  3.2km/h 33% 0.00in /  0mm 0.0 W/m2
22:44 66.6 °F /  19.2 °C 36.5 °F /  2.5 °C 29.83in /  1010hPa ENE 0.9mph /  1.4km/h 1.0mph /  1.6km/h 33% 0.00in /  0mm 0.0 W/m2
22:50 66.4 °F /  19.1 °C 37.2 °F /  2.9 °C 29.83in /  1010hPa Calm   3.0mph /  4.8km/h 34% 0.00in /  0mm 0.0 W/m2
22:56 66.4 °F /  19.1 °C 37.2 °F /  2.9 °C 29.83in /  1010hPa ENE 2.0mph /  3.2km/h 3.0mph /  4.8km/h 34% 0.00in /  0mm 0.0 W/m2
23:02 66.2 °F /  19 °C 37.0 °F /  2.8 °C 29.83in /  1010hPa Calm   2.0mph /  3.2km/h 34% 0.00in /  0mm 0.0 W/m2
23:09 66.0 °F /  18.9 °C 37.6 °F /  3.1 °C 29.83in /  1010hPa ENE 2.0mph /  3.2km/h 2.0mph /  3.2km/h 35% 0.00in /  0mm 0.0 W/m2
23:15 66.0 °F /  18.9 °C 37.6 °F /  3.1 °C 29.83in /  1010hPa Calm   3.0mph /  4.8km/h 35% 0.00in /  0mm 0.0 W/m2
23:21 66.0 °F /  18.9 °C 37.6 °F /  3.1 °C 29.83in /  1010hPa Calm   2.0mph /  3.2km/h 35% 0.00in /  0mm 0.0 W/m2
23:27 65.8 °F /  18.8 °C 37.4 °F /  3 °C 29.83in /  1010hPa Calm   2.0mph /  3.2km/h 35% 0.00in /  0mm 0.0 W/m2
23:33 65.7 °F /  18.7 °C 37.2 °F /  2.9 °C 29.83in /  1010hPa Calm   1.0mph /  1.6km/h 35% 0.00in /  0mm 0.0 W/m2
23:39 65.5 °F /  18.6 °C 37.0 °F /  2.8 °C 29.83in /  1010hPa Calm     35% 0.00in /  0mm 0.0 W/m2
23:46 65.1 °F /  18.4 °C 37.6 °F /  3.1 °C 29.84in /  1010.4hPa Calm     36% 0.00in /  0mm 0.0 W/m2
23:52 64.8 °F /  18.2 °C 37.2 °F /  2.9 °C 29.84in /  1010.4hPa Calm     36% 0.00in /  0mm 0.0 W/m2
23:58 64.6 °F /  18.1 °C 37.0 °F /  2.8 °C 29.84in /  1010.4hPa Calm     36% 0.00in /  0mm 0.0 W/m2
Olympia, Windhoek, Namibia
Compliments of Weather Underground - 3 mb